Terminal Aerodrome Forecast
Issued by NWS

Home | Current Version | Previous Version | Text Only | Print | Product List | Glossary On
Versions: 1 2 3 4 5 6 7 8 9 10 11 12 13 14 15 16 17 18 19 20 21 22
000
FTUS45 KBOI 092335
TAFMYL
TAF
KMYL 092335Z 1000/1024 VRB05KT 1SM -SN BR SCT007 OVC020
      TEMPO 1000/1004 1/2SM SN BKN005 OVC010
     FM101900 21005KT 3SM -SHSN OVC020=

USA.gov is the U.S. government's official web portal to all federal, state and local government web resources and services.